Time;durP1;ratioP1;P1;durP2;ratioP2;P2;SDS_P1;SDS_P2;PMS_P1;PMS_P2;Temp;Humidity;BMP_temperature;BMP_pressure;BME280_temperature;BME280_humidity;BME280_pressure;Samples;Min_cycle;Max_cycle;Signal;HPM_P1;HPM_P2
2021/06/28 00:00:43;;;;;;;5.40;2.47;;;21.50;99.90;;;;;;5029284;28;20395;-50
2021/06/28 00:03:10;;;;;;;4.95;2.40;;;20.30;99.90;;;;;;5029429;28;20407;-52
2021/06/28 00:05:35;;;;;;;5.18;2.30;;;21.40;99.90;;;;;;5029716;28;20510;-49
2021/06/28 00:08:01;;;;;;;4.55;2.20;;;21.40;99.90;;;;;;5029611;28;20466;-50
2021/06/28 00:10:30;;;;;;;5.30;2.40;;;21.30;99.90;;;;;;5029007;28;20840;-50
2021/06/28 00:12:58;;;;;;;4.90;2.50;;;21.30;99.90;;;;;;5029720;28;20395;-50
2021/06/28 00:15:27;;;;;;;6.70;3.10;;;21.30;99.90;;;;;;5028671;28;20733;-49
2021/06/28 00:17:53;;;;;;;5.03;2.40;;;21.30;99.90;;;;;;5029855;28;20439;-49
2021/06/28 00:20:20;;;;;;;4.90;2.70;;;21.30;99.90;;;;;;5028847;28;20383;-49
2021/06/28 00:22:47;;;;;;;5.00;2.60;;;21.30;99.90;;;;;;5029319;28;20422;-49
2021/06/28 00:25:18;;;;;;;6.20;2.60;;;21.30;99.90;;;;;;5029040;28;20392;-49
2021/06/28 00:27:44;;;;;;;5.20;2.50;;;21.30;99.90;;;;;;5029389;28;20437;-50
2021/06/28 00:30:13;;;;;;;5.20;2.80;;;21.40;99.90;;;;;;5028611;28;20463;-53
2021/06/28 00:32:40;;;;;;;5.20;2.70;;;21.40;99.90;;;;;;5029490;28;20941;-50
2021/06/28 00:35:06;;;;;;;5.63;3.10;;;21.40;99.90;;;;;;5029163;28;20413;-50
2021/06/28 00:37:32;;;;;;;5.50;2.65;;;21.30;99.90;;;;;;5028926;28;20443;-50
2021/06/28 00:39:58;;;;;;;6.30;3.00;;;21.30;99.90;;;;;;5029764;28;20399;-52
2021/06/28 00:42:25;;;;;;;6.87;3.17;;;21.00;99.90;;;;;;5028665;28;20407;-49
2021/06/28 00:44:52;;;;;;;6.20;3.05;;;21.10;99.90;;;;;;5029468;28;20472;-49
2021/06/28 00:47:18;;;;;;;5.75;3.17;;;21.10;99.90;;;;;;5028698;28;20723;-49
2021/06/28 00:49:44;;;;;;;6.35;3.30;;;21.10;99.90;;;;;;5029457;28;20466;-49
2021/06/28 00:52:10;;;;;;;5.28;2.90;;;21.10;99.90;;;;;;5028584;28;20806;-53
2021/06/28 00:54:38;;;;;;;6.30;2.90;;;21.10;99.90;;;;;;5029427;28;20410;-50
2021/06/28 00:57:05;;;;;;;5.50;2.60;;;20.00;99.90;;;;;;5029067;28;20843;-49
2021/06/28 00:59:32;;;;;;;5.50;3.00;;;21.00;99.90;;;;;;5028542;28;20450;-49
2021/06/28 01:01:59;;;;;;;6.15;2.60;;;21.00;99.90;;;;;;5029193;28;20379;-50
2021/06/28 01:04:26;;;;;;;5.90;3.00;;;20.90;99.90;;;;;;5028217;28;20409;-49
2021/06/28 01:06:51;;;;;;;5.25;2.70;;;21.00;99.90;;;;;;5029167;28;20441;-50
2021/06/28 01:09:17;;;;;;;7.30;2.90;;;21.00;99.90;;;;;;5028516;28;20390;-51
2021/06/28 01:11:43;;;;;;;5.55;2.80;;;21.00;99.90;;;;;;5032938;28;20379;-50
2021/06/28 01:14:09;;;;;;;5.10;2.83;;;21.10;99.90;;;;;;5032600;28;20399;-52
2021/06/28 01:16:36;;;;;;;5.10;2.90;;;21.10;99.90;;;;;;5032398;28;20379;-49
2021/06/28 01:19:02;;;;;;;5.07;2.40;;;21.20;99.90;;;;;;5032567;28;20395;-50
2021/06/28 01:21:29;;;;;;;7.57;2.80;;;21.30;99.90;;;;;;5032027;28;20466;-49
2021/06/28 01:23:55;;;;;;;6.28;3.08;;;21.30;99.90;;;;;;5043928;28;20411;-51
2021/06/28 01:26:21;;;;;;;5.30;2.75;;;21.40;99.90;;;;;;5050684;28;20366;-49
2021/06/28 01:28:47;;;;;;;5.77;2.77;;;21.50;99.90;;;;;;5032422;28;20406;-49
2021/06/28 01:31:13;;;;;;;5.50;2.80;;;21.50;99.90;;;;;;5031941;28;20876;-52
2021/06/28 01:33:39;;;;;;;6.00;2.80;;;21.50;99.90;;;;;;5032651;28;20387;-49
2021/06/28 01:36:05;;;;;;;5.33;2.70;;;21.60;99.90;;;;;;5039500;28;20496;-49
2021/06/28 01:38:31;;;;;;;5.30;3.00;;;21.60;99.90;;;;;;5051048;28;20393;-49
2021/06/28 01:40:57;;;;;;;5.53;2.90;;;21.70;99.90;;;;;;5052504;28;20443;-49
2021/06/28 01:43:24;;;;;;;5.80;2.80;;;21.70;99.90;;;;;;5051323;28;20409;-50
2021/06/28 01:45:51;;;;;;;5.97;2.50;;;21.70;99.90;;;;;;5052314;28;20473;-49
2021/06/28 01:48:17;;;;;;;5.00;2.67;;;21.70;99.90;;;;;;5051516;28;20382;-50
2021/06/28 01:50:43;;;;;;;6.07;2.73;;;21.60;99.90;;;;;;5052387;28;20442;-49
2021/06/28 01:53:09;;;;;;;6.15;3.00;;;21.50;99.90;;;;;;5038782;28;20892;-52
2021/06/28 01:55:36;;;;;;;6.20;3.10;;;21.40;99.90;;;;;;5031572;28;20637;-49
2021/06/28 01:58:05;;;;;;;5.30;3.05;;;21.40;99.90;;;;;;5032101;28;20900;-49
2021/06/28 02:00:38;;;;;;;4.80;2.60;;;21.50;99.90;;;;;;5030892;28;20380;-50
2021/06/28 02:03:08;;;;;;;7.20;2.90;;;21.30;99.90;;;;;;5032231;28;20407;-49
2021/06/28 02:05:47;;;;;;;6.10;2.97;;;21.20;99.90;;;;;;5031462;28;20834;-49
2021/06/28 02:08:14;;;;;;;5.97;3.00;;;21.10;99.90;;;;;;5031347;28;20733;-50
2021/06/28 02:10:46;;;;;;;5.40;3.00;;;21.00;99.90;;;;;;5031664;28;20401;-50
2021/06/28 02:13:11;;;;;;;5.47;3.00;;;21.10;99.90;;;;;;5031638;28;20924;-52
2021/06/28 02:15:37;;;;;;;5.90;2.90;;;21.20;99.90;;;;;;5031636;28;20383;-49
2021/06/28 02:18:03;;;;;;;5.55;2.80;;;21.10;99.90;;;;;;5031711;28;20790;-49
2021/06/28 02:20:29;;;;;;;6.50;3.10;;;21.10;99.90;;;;;;5031092;28;20529;-50
2021/06/28 02:23:10;;;;;;;6.43;3.25;;;21.10;99.90;;;;;;5030709;28;20442;-49
2021/06/28 02:25:36;;;;;;;6.17;3.20;;;21.20;99.90;;;;;;5031306;28;20387;-49
2021/06/28 02:28:01;;;;;;;7.50;2.90;;;21.20;99.90;;;;;;5031730;28;20752;-49
2021/06/28 02:30:27;;;;;;;7.13;3.40;;;21.20;99.90;;;;;;5030988;28;20445;-49
2021/06/28 02:32:52;;;;;;;6.82;3.80;;;21.20;99.90;;;;;;5031605;28;20379;-49
2021/06/28 02:35:18;;;;;;;6.40;3.50;;;21.10;99.90;;;;;;5030211;28;20517;-49
2021/06/28 02:37:44;;;;;;;6.82;3.50;;;21.00;99.90;;;;;;5031239;28;20437;-49
2021/06/28 02:40:12;;;;;;;9.52;3.67;;;20.80;99.90;;;;;;5031024;28;20387;-52
2021/06/28 02:42:39;;;;;;;5.70;3.20;;;20.80;99.90;;;;;;5030938;28;20444;-49
2021/06/28 02:45:07;;;;;;;6.00;3.25;;;20.70;99.90;;;;;;5031210;28;20482;-48
2021/06/28 02:47:32;;;;;;;7.00;3.60;;;20.60;99.90;;;;;;5029202;28;20413;-49
2021/06/28 02:49:58;;;;;;;7.60;3.20;;;20.60;99.90;;;;;;5030965;28;20741;-49
2021/06/28 02:52:24;;;;;;;5.80;3.40;;;20.60;99.90;;;;;;5030614;28;20390;-50
2021/06/28 02:54:50;;;;;;;5.90;3.40;;;20.50;99.90;;;;;;5031502;28;20380;-49
2021/06/28 02:57:16;;;;;;;6.10;3.70;;;20.50;99.90;;;;;;5030643;28;20395;-49
2021/06/28 02:59:42;;;;;;;7.07;3.70;;;20.50;99.90;;;;;;5031399;28;20733;-50
2021/06/28 03:02:07;;;;;;;6.38;3.70;;;20.50;99.90;;;;;;5030740;28;20418;-49
2021/06/28 03:04:33;;;;;;;7.60;3.70;;;20.50;99.90;;;;;;5029920;28;20391;-50
2021/06/28 03:06:59;;;;;;;6.47;3.50;;;20.60;99.90;;;;;;5030569;28;20437;-49
2021/06/28 03:09:24;;;;;;;8.60;3.70;;;20.70;99.90;;;;;;5030147;28;20376;-49
2021/06/28 03:11:50;;;;;;;5.90;3.30;;;20.60;99.90;;;;;;5030556;28;20383;-50
2021/06/28 03:14:16;;;;;;;5.70;3.30;;;20.70;99.90;;;;;;5030228;28;20386;-50
2021/06/28 03:16:41;;;;;;;6.30;3.40;;;20.80;99.90;;;;;;5030706;28;20948;-50
2021/06/28 03:19:07;;;;;;;5.80;3.70;;;20.90;99.90;;;;;;5030689;28;20379;-50
2021/06/28 03:21:33;;;;;;;6.25;4.00;;;20.80;99.90;;;;;;5030033;28;20390;-50
2021/06/28 03:23:58;;;;;;;7.10;3.65;;;20.60;99.90;;;;;;5030255;28;20915;-50
2021/06/28 03:26:24;;;;;;;6.20;3.60;;;20.60;99.90;;;;;;5030049;28;20383;-49
2021/06/28 03:28:50;;;;;;;8.30;3.80;;;20.70;99.90;;;;;;5030521;28;20387;-49
2021/06/28 03:31:15;;;;;;;7.07;3.92;;;20.70;99.90;;;;;;5029264;28;20395;-49
2021/06/28 03:33:41;;;;;;;6.15;3.80;;;20.70;99.90;;;;;;5028987;28;20410;-49
2021/06/28 03:36:07;;;;;;;8.43;3.40;;;20.60;99.90;;;;;;5030568;28;20387;-49
2021/06/28 03:38:33;;;;;;;6.10;3.70;;;19.20;99.90;;;;;;5029203;28;20437;-50
2021/06/28 03:40:59;;;;;;;6.10;3.30;;;20.40;99.90;;;;;;5029807;28;20391;-50
2021/06/28 03:43:25;;;;;;;6.10;3.50;;;20.40;99.90;;;;;;5029232;28;20533;-49
2021/06/28 03:45:50;;;;;;;7.50;3.90;;;20.30;99.90;;;;;;5030173;28;20376;-49
2021/06/28 03:48:16;;;;;;;6.50;3.83;;;20.30;99.90;;;;;;5029381;28;20896;-49
2021/06/28 03:50:42;;;;;;;5.97;3.40;;;20.40;99.90;;;;;;5029795;28;20873;-50
2021/06/28 03:53:09;;;;;;;8.70;4.20;;;20.40;99.90;;;;;;5030487;28;20406;-49
2021/06/28 03:55:35;;;;;;;6.38;3.83;;;20.40;99.90;;;;;;5029557;28;20402;-49
2021/06/28 03:58:01;;;;;;;7.33;4.00;;;20.30;99.90;;;;;;5030124;28;20367;-49
2021/06/28 04:00:28;;;;;;;8.38;4.50;;;20.30;99.90;;;;;;5029093;28;20387;-49
2021/06/28 04:03:01;;;;;;;6.17;4.00;;;20.30;99.90;;;;;;5029586;28;20465;-49
2021/06/28 04:05:27;;;;;;;6.00;3.80;;;20.30;99.90;;;;;;5029195;28;20415;-49
2021/06/28 04:07:53;;;;;;;7.68;4.38;;;20.20;99.90;;;;;;5029872;28;20402;-49
2021/06/28 04:10:22;;;;;;;7.10;4.60;;;20.20;99.90;;;;;;5029074;28;20383;-51
2021/06/28 04:12:50;;;;;;;7.57;4.55;;;20.10;99.90;;;;;;5030016;28;20461;-50
2021/06/28 04:15:17;;;;;;;7.72;4.50;;;20.10;99.90;;;;;;5028610;28;20860;-50
2021/06/28 04:17:49;;;;;;;7.78;4.60;;;20.00;99.90;;;;;;5029683;28;20391;-50
2021/06/28 04:20:17;;;;;;;7.60;4.27;;;20.00;99.90;;;;;;5030828;28;20501;-53
2021/06/28 04:22:44;;;;;;;7.83;4.40;;;20.00;99.90;;;;;;5038046;28;20415;-50
2021/06/28 04:25:16;;;;;;;8.50;4.85;;;20.10;99.90;;;;;;5029169;28;20387;-51
2021/06/28 04:27:42;;;;;;;8.20;4.75;;;20.10;99.90;;;;;;5029005;28;20384;-50
2021/06/28 04:30:10;;;;;;;8.33;4.40;;;20.20;99.90;;;;;;5030859;28;20375;-49
2021/06/28 04:32:37;;;;;;;6.85;4.20;;;20.30;99.90;;;;;;5029628;28;20461;-50
2021/06/28 04:35:08;;;;;;;8.23;4.50;;;20.40;99.90;;;;;;5028834;28;20395;-50
2021/06/28 04:37:34;;;;;;;8.45;4.60;;;20.50;99.90;;;;;;5027314;28;20424;-50
2021/06/28 04:40:00;;;;;;;8.10;4.00;;;20.60;99.90;;;;;;5029260;28;20465;-50
2021/06/28 04:42:26;;;;;;;8.57;4.35;;;20.60;99.90;;;;;;5027155;28;20418;-50
2021/06/28 04:44:52;;;;;;;8.60;3.92;;;20.60;99.90;;;;;;5030489;28;20379;-51
2021/06/28 04:47:17;;;;;;;10.20;4.63;;;20.60;99.90;;;;;;5039976;28;20426;-51
2021/06/28 04:49:43;;;;;;;8.80;4.60;;;20.70;99.90;;;;;;5052427;28;20839;-50
2021/06/28 04:52:09;;;;;;;7.90;5.00;;;20.80;99.90;;;;;;5053620;28;20381;-48
2021/06/28 04:54:34;;;;;;;9.65;5.25;;;20.80;99.90;;;;;;5048366;28;20386;-49
2021/06/28 04:57:00;;;;;;;7.65;4.90;;;21.00;99.90;;;;;;5033384;28;20383;-49
2021/06/28 04:59:26;;;;;;;9.73;5.00;;;21.00;99.90;;;;;;5032926;28;20445;-49
2021/06/28 05:01:51;;;;;;;8.77;5.10;;;21.00;99.90;;;;;;5043425;28;20467;-49
2021/06/28 05:04:17;;;;;;;8.03;5.13;;;21.10;99.90;;;;;;5034359;28;20511;-52
2021/06/28 05:06:42;;;;;;;8.98;5.72;;;21.10;99.90;;;;;;5032672;28;20495;-49
2021/06/28 05:09:09;;;;;;;8.40;5.32;;;21.10;99.90;;;;;;5038464;28;20460;-49
2021/06/28 05:11:36;;;;;;;7.53;5.20;;;21.10;99.90;;;;;;5045043;28;20383;-49
2021/06/28 05:14:02;;;;;;;10.15;5.80;;;21.20;99.90;;;;;;5042926;28;20424;-49
2021/06/28 05:16:28;;;;;;;6.78;4.10;;;21.60;99.90;;;;;;5031999;28;20407;-50
2021/06/28 05:18:54;;;;;;;8.50;4.03;;;23.00;99.90;;;;;;5032186;28;20390;-53
2021/06/28 05:21:19;;;;;;;7.25;4.00;;;24.50;99.90;;;;;;5031415;28;20387;-51
2021/06/28 05:23:45;;;;;;;8.02;4.25;;;25.40;99.90;;;;;;5032152;28;20423;-51
2021/06/28 05:26:11;;;;;;;6.88;4.10;;;25.80;99.90;;;;;;5032403;28;20536;-48
2021/06/28 05:28:36;;;;;;;11.90;4.55;;;26.60;99.90;;;;;;5031976;28;20415;-49
2021/06/28 05:31:03;;;;;;;10.97;4.50;;;27.20;99.90;;;;;;5031276;28;20387;-49
2021/06/28 05:33:29;;;;;;;9.98;4.10;;;28.10;99.90;;;;;;5032001;28;20418;-49
2021/06/28 05:35:55;;;;;;;8.40;4.10;;;28.30;99.90;;;;;;5032735;28;20431;-49
2021/06/28 05:38:21;;;;;;;6.70;3.60;;;27.80;99.90;;;;;;5031861;28;20868;-50
2021/06/28 05:40:46;;;;;;;7.25;3.70;;;28.30;99.90;;;;;;5032366;28;20391;-50
2021/06/28 05:43:12;;;;;;;8.63;3.85;;;28.00;99.90;;;;;;5032216;28;20476;-49
2021/06/28 05:45:38;;;;;;;8.57;3.90;;;28.50;99.90;;;;;;5031557;28;20398;-50
2021/06/28 05:48:05;;;;;;;6.90;3.63;;;29.50;99.90;;;;;;5046431;28;20451;-50
2021/06/28 05:50:31;;;;;;;9.00;3.88;;;30.50;99.90;;;;;;5038486;28;20407;-50
2021/06/28 05:52:58;;;;;;;7.72;4.70;;;31.40;99.90;;;;;;5035210;28;20408;-50
2021/06/28 05:55:24;;;;;;;7.40;3.80;;;30.90;99.90;;;;;;5045813;28;20391;-50
2021/06/28 05:57:50;;;;;;;6.70;4.32;;;29.80;99.90;;;;;;5031182;28;20529;-50
2021/06/28 06:00:18;;;;;;;5.83;2.97;;;29.80;99.90;;;;;;5031246;28;20433;-50
2021/06/28 06:02:43;;;;;;;10.70;3.30;;;31.00;99.90;;;;;;5032310;28;20870;-50
2021/06/28 06:05:10;;;;;;;6.78;3.08;;;31.70;97.50;;;;;;5032121;28;20402;-50
2021/06/28 06:07:37;;;;;;;6.07;2.42;;;30.80;96.20;;;;;;5031366;28;20459;-51
2021/06/28 06:10:06;;;;;;;6.88;3.53;;;29.80;97.90;;;;;;5032127;28;20453;-50
2021/06/28 06:12:32;;;;;;;5.63;2.70;;;29.10;99.90;;;;;;5031818;28;20390;-48
2021/06/28 06:14:57;;;;;;;6.97;3.63;;;28.10;99.90;;;;;;5031492;28;20908;-49
2021/06/28 06:17:23;;;;;;;8.20;3.20;;;27.70;99.90;;;;;;5030980;28;20379;-49
2021/06/28 06:19:49;;;;;;;5.88;3.22;;;28.20;99.90;;;;;;5031828;28;20458;-49
2021/06/28 06:22:14;;;;;;;6.57;2.80;;;27.90;99.90;;;;;;5031940;28;20416;-52
2021/06/28 06:24:40;;;;;;;9.38;3.35;;;27.60;99.90;;;;;;5044313;28;20382;-49
2021/06/28 06:27:07;;;;;;;5.65;2.90;;;27.60;99.90;;;;;;5042034;28;20415;-50
2021/06/28 06:29:34;;;;;;;5.85;3.00;;;28.20;99.90;;;;;;5050801;28;20438;-49
2021/06/28 06:32:00;;;;;;;6.57;2.60;;;30.00;99.90;;;;;;5048427;28;20943;-49
2021/06/28 06:34:26;;;;;;;6.40;2.70;;;31.70;96.10;;;;;;5031227;28;20418;-50
2021/06/28 06:36:53;;;;;;;7.50;3.70;;;32.70;93.30;;;;;;5031274;28;20430;-50
2021/06/28 06:39:19;;;;;;;5.30;2.40;;;33.80;90.90;;;;;;5030812;28;20426;-53
2021/06/28 06:41:45;;;;;;;5.45;2.30;;;33.80;88.20;;;;;;5042518;28;20731;-50
2021/06/28 06:44:11;;;;;;;5.20;2.55;;;33.00;87.80;;;;;;5049497;28;20409;-50
2021/06/28 06:46:37;;;;;;;7.03;2.78;;;32.90;87.40;;;;;;5050702;28;20518;-51
2021/06/28 06:49:04;;;;;;;5.45;3.63;;;33.60;86.10;;;;;;5051035;28;20928;-50
2021/06/28 06:51:30;;;;;;;6.22;3.72;;;32.60;86.30;;;;;;5050613;28;20492;-50
2021/06/28 06:53:56;;;;;;;6.78;3.90;;;32.20;88.00;;;;;;5051018;28;20393;-50
2021/06/28 06:56:21;;;;;;;6.40;3.60;;;32.50;88.90;;;;;;5049054;28;20393;-50
2021/06/28 06:58:47;;;;;;;6.17;4.47;;;32.80;89.00;;;;;;5051194;28;20449;-48
2021/06/28 07:01:16;;;;;;;7.27;4.27;;;33.10;88.30;;;;;;5032284;28;20879;-49
2021/06/28 07:03:45;;;;;;;5.80;2.78;;;34.60;87.60;;;;;;5030358;28;20403;-49
2021/06/28 07:06:10;;;;;;;6.30;3.25;;;33.50;86.70;;;;;;5031169;28;20465;-50
2021/06/28 07:08:37;;;;;;;5.38;2.70;;;34.00;84.60;;;;;;5029390;28;20528;-50
2021/06/28 07:11:06;;;;;;;6.90;5.00;;;34.80;81.30;;;;;;5030629;28;20854;-51
2021/06/28 07:13:32;;;;;;;7.38;5.50;;;34.80;77.80;;;;;;5030239;28;20383;-52
2021/06/28 07:15:57;;;;;;;8.52;5.10;;;34.90;79.00;;;;;;5029673;28;20579;-54
2021/06/28 07:18:23;;;;;;;7.32;5.78;;;35.40;75.20;;;;;;5029875;28;20460;-51
2021/06/28 07:20:49;;;;;;;6.05;2.78;;;35.50;72.40;;;;;;5029934;28;20387;-52
2021/06/28 07:23:15;;;;;;;6.80;3.08;;;35.80;73.50;;;;;;5030035;28;20498;-52
2021/06/28 07:25:41;;;;;;;7.05;2.80;;;35.40;71.10;;;;;;5029725;28;20474;-51
2021/06/28 07:28:07;;;;;;;6.50;3.10;;;35.40;72.30;;;;;;5029644;28;20398;-51
2021/06/28 07:30:33;;;;;;;7.00;3.35;;;35.70;72.60;;;;;;5034936;28;20514;-51
2021/06/28 07:32:58;;;;;;;5.50;2.80;;;36.30;70.80;;;;;;5045750;28;20394;-52
2021/06/28 07:35:24;;;;;;;6.30;3.20;;;36.60;70.10;;;;;;5029748;28;20394;-51
2021/06/28 07:37:50;;;;;;;6.00;3.33;;;36.70;67.40;;;;;;5030589;28;20390;-50
2021/06/28 07:40:19;;;;;;;7.00;3.30;;;36.90;65.30;;;;;;5030323;28;20379;-51
2021/06/28 07:42:46;;;;;;;6.60;3.10;;;37.10;65.20;;;;;;5030353;28;20497;-51
2021/06/28 07:45:13;;;;;;;6.38;3.30;;;36.50;66.40;;;;;;5030200;28;20379;-51
2021/06/28 07:47:40;;;;;;;7.40;3.00;;;36.60;64.70;;;;;;5029680;28;20490;-50
2021/06/28 07:50:06;;;;;;;5.82;3.00;;;36.70;63.80;;;;;;5030277;28;20386;-50
2021/06/28 07:52:32;;;;;;;6.55;2.90;;;37.10;62.90;;;;;;5031040;28;20833;-52
2021/06/28 07:54:59;;;;;;;8.07;3.08;;;37.20;61.90;;;;;;5050150;28;20469;-50
2021/06/28 07:57:25;;;;;;;5.90;3.20;;;37.30;60.70;;;;;;5049229;28;20396;-51
2021/06/28 07:59:51;;;;;;;5.43;3.10;;;37.50;58.60;;;;;;5042869;28;20410;-51
2021/06/28 08:02:17;;;;;;;6.20;2.90;;;36.80;58.70;;;;;;5033174;28;20873;-54
2021/06/28 08:04:42;;;;;;;5.40;2.70;;;36.40;59.60;;;;;;5047273;28;20397;-50
2021/06/28 08:07:08;;;;;;;5.90;2.70;;;36.40;59.20;;;;;;5050050;28;20515;-51
2021/06/28 08:09:34;;;;;;;6.50;2.90;;;37.00;58.00;;;;;;5033654;28;20380;-51
2021/06/28 08:11:59;;;;;;;5.07;2.80;;;37.10;58.10;;;;;;5030116;28;20387;-51
2021/06/28 08:14:26;;;;;;;7.60;3.30;;;37.30;55.70;;;;;;5029241;28;20398;-51
2021/06/28 08:16:51;;;;;;;5.70;3.43;;;37.10;56.10;;;;;;5043483;28;20484;-51
2021/06/28 08:19:17;;;;;;;5.67;2.70;;;36.70;57.10;;;;;;5048914;28;20477;-51
2021/06/28 08:21:43;;;;;;;6.30;2.85;;;36.50;57.60;;;;;;5049060;28;20385;-51
2021/06/28 08:24:09;;;;;;;6.47;2.80;;;36.90;57.00;;;;;;5049354;28;20479;-51
2021/06/28 08:26:37;;;;;;;5.60;2.63;;;37.00;57.60;;;;;;5048619;28;20409;-51
2021/06/28 08:29:05;;;;;;;6.10;2.90;;;37.70;55.00;;;;;;5050093;28;20378;-51
2021/06/28 08:31:32;;;;;;;5.40;2.90;;;38.10;54.90;;;;;;5049075;28;20385;-51
2021/06/28 08:33:57;;;;;;;5.82;4.15;;;37.40;56.70;;;;;;5049482;28;20391;-51
2021/06/28 08:36:23;;;;;;;6.45;3.25;;;36.80;57.40;;;;;;5048640;28;20389;-51
2021/06/28 08:38:48;;;;;;;6.17;3.20;;;36.40;58.00;;;;;;5049282;28;20409;-51
2021/06/28 08:41:16;;;;;;;5.80;3.10;;;36.40;56.70;;;;;;5049623;28;20460;-51
2021/06/28 08:43:46;;;;;;;5.75;3.45;;;36.50;58.00;;;;;;5048670;28;20921;-51
2021/06/28 08:46:16;;;;;;;13.32;12.05;;;36.40;57.80;;;;;;5030363;28;20375;-51
2021/06/28 08:48:43;;;;;;;6.40;3.65;;;36.20;57.50;;;;;;5043105;28;20419;-51
2021/06/28 08:51:09;;;;;;;5.75;4.20;;;36.00;58.20;;;;;;5039139;28;20457;-51
2021/06/28 08:53:35;;;;;;;6.60;2.90;;;36.60;56.20;;;;;;5042964;28;20381;-51
2021/06/28 08:56:06;;;;;;;6.53;2.80;;;36.90;55.10;;;;;;5049699;28;20467;-51
2021/06/28 08:58:39;;;;;;;5.45;2.80;;;37.30;54.00;;;;;;5035839;28;20391;-51
2021/06/28 09:01:06;;;;;;;5.90;2.80;;;38.00;53.20;;;;;;5031412;28;20387;-51
2021/06/28 09:03:35;;;;;;;7.90;3.10;;;37.40;54.10;;;;;;5044716;28;20421;-51
2021/06/28 09:06:21;;;;;;;6.80;3.15;;;36.60;55.20;;;;;;5037787;28;20424;-51
2021/06/28 09:08:57;;;;;;;7.90;5.20;;;36.20;55.80;;;;;;5048978;28;20923;-50
2021/06/28 09:11:23;;;;;;;6.10;5.50;;;34.80;57.10;;;;;;5048260;28;20374;-50
2021/06/28 09:13:51;;;;;;;7.22;5.45;;;34.90;58.50;;;;;;5041642;28;20441;-51
2021/06/28 09:16:28;;;;;;;6.47;5.40;;;35.80;57.90;;;;;;5039258;28;20475;-51
2021/06/28 09:19:01;;;;;;;7.40;5.80;;;35.90;57.60;;;;;;5049219;28;20381;-51
2021/06/28 09:21:50;;;;;;;6.80;5.88;;;35.70;57.60;;;;;;5047742;28;20438;-50
2021/06/28 09:24:27;;;;;;;6.57;5.40;;;35.20;59.60;;;;;;5048818;28;20413;-50
2021/06/28 09:27:09;;;;;;;6.45;5.10;;;35.60;59.80;;;;;;5042657;28;20471;-51
2021/06/28 09:29:37;;;;;;;8.02;5.30;;;36.20;57.90;;;;;;5041637;28;20418;-51
2021/06/28 09:32:13;;;;;;;7.40;5.80;;;36.00;58.60;;;;;;5049179;28;20382;-51
2021/06/28 09:34:41;;;;;;;7.38;5.43;;;35.90;58.60;;;;;;5051371;28;21051;-51
2021/06/28 09:37:16;;;;;;;6.30;5.17;;;36.30;59.40;;;;;;5052937;28;20395;-51
2021/06/28 09:39:46;;;;;;;7.50;5.30;;;36.10;59.20;;;;;;5052355;28;20498;-51
2021/06/28 09:42:21;;;;;;;7.78;5.47;;;35.80;59.10;;;;;;5051399;28;20475;-51
2021/06/28 09:45:06;;;;;;;6.32;5.50;;;35.50;58.80;;;;;;5048303;28;20399;-51
2021/06/28 09:47:35;;;;;;;7.80;5.20;;;36.20;58.20;;;;;;5037333;28;20519;-52
2021/06/28 09:50:11;;;;;;;7.07;4.72;;;36.40;57.50;;;;;;5043758;28;20424;-52
2021/06/28 09:52:43;;;;;;;6.97;4.90;;;37.30;56.00;;;;;;5040868;28;20405;-51
2021/06/28 09:55:24;;;;;;;8.50;5.93;;;37.20;55.30;;;;;;5041755;28;20397;-51
2021/06/28 09:58:17;;;;;;;6.70;5.25;;;37.30;55.30;;;;;;5041361;28;20396;-52
2021/06/28 10:00:46;;;;;;;9.10;6.23;;;36.80;56.10;;;;;;5036024;28;20397;-50
2021/06/28 10:03:45;;;;;;;6.40;5.13;;;36.70;55.70;;;;;;5035912;28;20399;-51
2021/06/28 10:06:27;;;;;;;7.35;5.60;;;37.10;56.30;;;;;;5009117;28;20502;-51
2021/06/28 10:09:07;;;;;;;6.30;5.00;;;37.90;53.90;;;;;;5032163;28;20480;-51
2021/06/28 10:11:34;;;;;;;6.90;4.80;;;38.50;53.50;;;;;;5031183;28;20455;-51
2021/06/28 10:14:01;;;;;;;6.10;5.03;;;38.10;53.20;;;;;;5031670;28;20394;-51
2021/06/28 10:16:29;;;;;;;5.80;3.78;;;38.10;52.90;;;;;;5031341;28;20415;-51
2021/06/28 10:18:56;;;;;;;6.03;4.10;;;37.60;53.40;;;;;;5032248;28;20386;-50
2021/06/28 10:21:23;;;;;;;5.97;4.63;;;37.20;53.30;;;;;;5030404;28;20403;-51
2021/06/28 10:23:49;;;;;;;7.00;4.35;;;36.90;54.50;;;;;;5039446;28;20895;-51
2021/06/28 10:26:15;;;;;;;6.30;5.18;;;36.90;53.70;;;;;;5039967;28;20399;-50
2021/06/28 10:28:41;;;;;;;6.63;4.50;;;36.80;53.10;;;;;;5029577;28;20438;-51
2021/06/28 10:31:09;;;;;;;9.93;8.20;;;37.40;52.60;;;;;;5040863;28;20404;-52
2021/06/28 10:33:37;;;;;;;6.60;5.90;;;38.10;51.10;;;;;;5049254;28;20369;-51
2021/06/28 10:36:10;;;;;;;6.18;5.00;;;37.20;52.90;;;;;;5032923;28;20406;-51
2021/06/28 10:38:56;;;;;;;5.93;4.80;;;36.20;53.50;;;;;;5030432;28;20405;-51
2021/06/28 10:41:49;;;;;;;6.60;5.27;;;35.10;55.40;;;;;;5032806;28;20497;-54
2021/06/28 10:44:16;;;;;;;7.80;5.32;;;34.60;56.10;;;;;;5051076;28;20505;-51
2021/06/28 10:46:44;;;;;;;7.30;5.20;;;34.60;56.30;;;;;;5042883;28;20385;-51
2021/06/28 10:49:10;;;;;;;6.22;4.20;;;33.90;56.70;;;;;;5036669;28;20853;-52
2021/06/28 10:51:47;;;;;;;6.70;5.18;;;33.70;57.80;;;;;;5028970;28;20394;-51
2021/06/28 10:54:16;;;;;;;6.97;5.28;;;33.90;58.10;;;;;;5030561;28;20391;-51
2021/06/28 10:56:52;;;;;;;7.95;5.00;;;33.60;58.30;;;;;;5045315;28;20859;-52
2021/06/28 10:59:21;;;;;;;7.80;4.80;;;33.40;58.40;;;;;;5034364;28;20553;-50
2021/06/28 11:01:58;;;;;;;6.82;5.22;;;32.50;60.70;;;;;;5034038;28;20391;-50
2021/06/28 11:04:27;;;;;;;7.50;5.77;;;32.20;62.90;;;;;;5036912;28;20755;-50
2021/06/28 11:06:59;;;;;;;6.95;5.35;;;32.00;64.10;;;;;;5029703;28;20448;-51
2021/06/28 11:09:34;;;;;;;8.43;5.30;;;32.30;64.40;;;;;;5039100;28;20876;-52
2021/06/28 11:12:00;;;;;;;6.95;5.90;;;32.60;63.80;;;;;;5031407;28;20391;-50
2021/06/28 11:14:26;;;;;;;8.85;4.93;;;32.60;63.10;;;;;;5030071;28;20450;-51
2021/06/28 11:17:06;;;;;;;9.63;5.70;;;32.70;60.50;;;;;;5030646;28;20383;-50
2021/06/28 11:19:58;;;;;;;8.27;6.28;;;32.20;63.10;;;;;;5029834;28;20387;-50
2021/06/28 11:22:54;;;;;;;8.07;5.57;;;32.30;63.20;;;;;;5028908;28;20418;-50
2021/06/28 11:25:26;;;;;;;7.23;3.20;;;32.30;65.70;;;;;;5037162;28;20831;-53
2021/06/28 11:27:58;;;;;;;6.38;3.20;;;32.20;62.00;;;;;;5041344;28;20421;-50
2021/06/28 11:30:26;;;;;;;6.10;3.08;;;32.30;61.70;;;;;;5030677;28;20403;-53
2021/06/28 11:33:05;;;;;;;8.23;4.90;;;32.30;62.40;;;;;;5038722;28;20378;-50
2021/06/28 11:35:43;;;;;;;6.13;5.00;;;32.50;63.40;;;;;;5029989;28;21195;-50
2021/06/28 11:38:28;;;;;;;7.20;5.60;;;32.70;62.60;;;;;;5030478;28;20409;-51
2021/06/28 11:41:13;;;;;;;6.55;5.22;;;32.70;63.10;;;;;;5030152;28;20482;-51
2021/06/28 11:43:40;;;;;;;6.38;5.07;;;32.40;63.50;;;;;;5029085;28;20820;-51
2021/06/28 11:46:27;;;;;;;5.55;4.20;;;32.40;62.70;;;;;;5031707;28;20525;-50
2021/06/28 11:49:03;;;;;;;6.45;3.70;;;32.30;61.70;;;;;;5029767;28;20448;-51
2021/06/28 11:51:38;;;;;;;12.77;4.00;;;32.50;62.70;;;;;;5027394;28;20845;-50
2021/06/28 11:54:13;;;;;;;7.70;5.30;;;32.70;60.20;;;;;;5034690;28;20455;-50
2021/06/28 11:56:41;;;;;;;6.45;4.70;;;32.40;61.20;;;;;;5030551;28;20403;-50
2021/06/28 11:59:15;;;;;;;6.10;4.50;;;32.40;61.30;;;;;;5038153;28;20478;-50
2021/06/28 12:01:53;;;;;;;5.80;3.55;;;32.50;60.40;;;;;;5027246;28;20431;-49
2021/06/28 12:04:22;;;;;;;6.53;4.20;;;32.60;60.30;;;;;;5035306;28;20421;-50
2021/06/28 12:06:53;;;;;;;6.50;4.75;;;32.60;61.00;;;;;;5026650;28;20419;-52
2021/06/28 12:09:24;;;;;;;6.10;4.10;;;32.40;61.80;;;;;;5034079;28;20460;-51
2021/06/28 12:11:57;;;;;;;7.68;4.20;;;34.00;62.20;;;;;;5029004;28;20395;-51
2021/06/28 12:14:46;;;;;;;6.85;4.15;;;32.80;62.70;;;;;;5028651;28;20399;-52
2021/06/28 12:17:20;;;;;;;8.57;4.03;;;33.00;61.10;;;;;;5029526;28;20441;-49
2021/06/28 12:19:50;;;;;;;6.32;4.18;;;32.80;60.10;;;;;;5028800;28;20812;-51
2021/06/28 12:22:19;;;;;;;7.20;4.80;;;32.60;61.20;;;;;;5040770;28;20398;-53
2021/06/28 12:24:47;;;;;;;6.40;3.70;;;32.50;63.10;;;;;;5037691;28;20411;-48
2021/06/28 12:27:15;;;;;;;6.63;4.85;;;33.10;62.40;;;;;;5029402;28;20387;-49
2021/06/28 12:29:48;;;;;;;6.13;3.83;;;33.30;60.60;;;;;;5028828;28;20448;-49
2021/06/28 12:32:32;;;;;;;7.00;4.10;;;33.10;62.30;;;;;;5037057;28;20876;-50
2021/06/28 12:35:07;;;;;;;6.25;4.10;;;32.80;61.80;;;;;;5038546;28;20415;-49
2021/06/28 12:37:36;;;;;;;6.60;4.20;;;32.40;63.80;;;;;;5030819;28;20408;-51
2021/06/28 12:40:20;;;;;;;7.72;4.82;;;32.30;64.00;;;;;;5037435;28;20385;-50
2021/06/28 12:42:52;;;;;;;6.97;5.30;;;32.60;64.20;;;;;;5030228;28;20885;-51
2021/06/28 12:45:20;;;;;;;7.18;4.57;;;32.70;63.20;;;;;;5028176;28;20399;-49
2021/06/28 12:47:55;;;;;;;7.00;4.10;;;33.20;62.50;;;;;;5033592;28;20499;-49
2021/06/28 12:50:24;;;;;;;9.80;4.00;;;33.60;61.60;;;;;;5024633;28;20386;-48
2021/06/28 12:52:51;;;;;;;6.70;5.13;;;33.50;62.10;;;;;;5028887;28;20391;-48